| Ora | Descriere | Temp | Se simte | Precipitatii | Umiditate | Vant |
|---|---|---|---|---|---|---|
| 00:00 | Senin | 15° | 15° | 0% | 59% | SSE 10.8 KM/H |
| 01:00 | Senin | 14.4° | 13.6° | 0% | 61% | SSW 11.9 KM/H |
| 02:00 | Senin | 13.1° | 12.2° | 0% | 66% | SSW 11.5 KM/H |
| 03:00 | Senin | 12.1° | 11.3° | 0% | 71% | S 9.4 KM/H |
| 04:00 | Senin | 11.4° | 10.5° | 0% | 75% | S 9 KM/H |
| 05:00 | Senin | 11.1° | 10.1° | 0% | 77% | S 9.4 KM/H |
| 06:00 | Senin | 11° | 9.8° | 0% | 79% | S 10.1 KM/H |
| 07:00 | 11.6° | 10.4° | 0% | 78% | S 10.8 KM/H | |
| 08:00 | Senin | 13.8° | 12.8° | 0% | 73% | S 13.3 KM/H |
| 09:00 | 16.2° | 16.2° | 0% | 66% | S 17.6 KM/H | |
| 10:00 | Innorat | 20.1° | 18.2° | 0% | 46% | SSW 19.1 KM/H |
| 11:00 | 19.9° | 19.9° | 0% | 56% | SSW 18.7 KM/H | |
| 12:00 | Senin | 21.2° | 21.2° | 0% | 51% | SW 19.1 KM/H |
| 13:00 | Senin | 22.3° | 24.4° | 0% | 48% | SW 19.4 KM/H |
| 14:00 | 23° | 24.6° | 0% | 46% | SW 20.2 KM/H | |
| 15:00 | 23.3° | 24.7° | 0% | 45% | SW 20.5 KM/H | |
| 16:00 | 23.4° | 24.7° | 0% | 44% | SW 20.9 KM/H | |
| 17:00 | 23.2° | 24.6° | 0% | 43% | SW 19.4 KM/H | |
| 18:00 | 23° | 24.6° | 0% | 46% | SW 15.8 KM/H | |
| 19:00 | Senin | 22.1° | 24.5° | 0% | 52% | SW 11.5 KM/H |
| 20:00 | Senin | 19.7° | 19.7° | 0% | 60% | S 8.6 KM/H |
| 21:00 | Senin | 17.2° | 17.2° | 0% | 65% | SSE 9.4 KM/H |
| 22:00 | Senin | 16.2° | 16.2° | 0% | 68% | SSE 10.1 KM/H |
| 23:00 | Senin | 15.5° | 15.5° | 0% | 70% | SSE 10.8 KM/H |